createdAt,value
2023-04-21T00:07:20.695Z,100
2023-04-21T00:26:32.305Z,100
2023-04-21T00:45:44.339Z,100
2023-04-21T01:04:56.434Z,100
2023-04-21T01:24:06.989Z,100
2023-04-21T01:43:19.292Z,100
2023-04-21T01:43:26.520Z,100
2023-04-21T02:02:36.882Z,100
2023-04-21T02:21:48.194Z,100
2023-04-21T02:41:00.150Z,100
2023-04-21T03:00:12.129Z,100
2023-04-21T03:19:25.694Z,100
2023-04-21T03:38:36.382Z,100
2023-04-21T03:57:48.902Z,100
2023-04-21T04:16:58.367Z,100
2023-04-21T04:36:09.110Z,100
2023-04-21T04:55:21.354Z,100
2023-04-21T05:14:34.282Z,100
2023-04-21T05:33:48.460Z,100
2023-04-21T05:53:01.586Z,100
2023-04-21T06:12:11.155Z,100
2023-04-21T06:31:25.943Z,100
2023-04-21T06:50:36.297Z,100
2023-04-21T07:09:47.416Z,100
2023-04-21T07:28:58.323Z,100
2023-04-21T07:48:10.268Z,100
2023-04-21T08:07:24.555Z,98.4
2023-04-21T08:26:35.774Z,94.4
2023-04-21T08:45:44.033Z,94.6
2023-04-21T09:04:57.165Z,91.7
2023-04-21T09:24:08.660Z,91.6
2023-04-21T09:43:19.658Z,88.9
2023-04-21T10:05:59.972Z,84.1
2023-04-21T10:24:19.244Z,81.7
2023-04-21T10:43:30.407Z,81.8
2023-04-21T11:02:44.930Z,79.6
2023-04-21T11:21:52.739Z,79.3
2023-04-21T11:41:05.357Z,77.1
2023-04-21T12:00:26.275Z,74.3
2023-04-21T12:19:36.000Z,72.6
2023-04-21T12:38:51.289Z,70.8
2023-04-21T12:58:03.129Z,67.9
2023-04-21T13:17:18.880Z,64.5
2023-04-21T13:36:31.429Z,65.5
2023-04-21T13:55:45.069Z,65.4
2023-04-21T14:14:55.039Z,65.2
2023-04-21T14:34:06.358Z,67
2023-04-21T14:53:18.357Z,64.5
2023-04-21T15:12:31.564Z,64.3
2023-04-21T15:31:42.251Z,64.5
2023-04-21T15:50:49.960Z,66.1
2023-04-21T16:10:02.928Z,64.3
2023-04-21T16:29:12.652Z,64.1
2023-04-21T16:48:25.075Z,63.2
2023-04-21T17:07:35.766Z,65.7
2023-04-21T17:26:46.737Z,64.1
2023-04-21T17:45:55.686Z,64.5
2023-04-21T18:05:08.415Z,66.4
2023-04-21T18:24:17.574Z,69.5
2023-04-21T18:43:26.301Z,73.8
2023-04-21T19:02:41.228Z,72.8
2023-04-21T19:21:49.784Z,73
2023-04-21T19:40:57.296Z,90.4
2023-04-21T20:00:05.352Z,97.7
2023-04-21T20:19:17.642Z,97.9
2023-04-21T20:38:27.704Z,97.2
2023-04-21T20:57:40.889Z,100
2023-04-21T21:16:50.809Z,100
2023-04-21T21:35:59.137Z,100
2023-04-21T21:55:07.359Z,100
2023-04-21T22:14:24.217Z,100
2023-04-21T22:33:31.281Z,100
2023-04-21T22:52:40.488Z,100
2023-04-21T23:11:55.145Z,100
2023-04-21T23:31:05.469Z,100
2023-04-21T23:50:15.241Z,100
